Airport View

Enter AWOS ICAO identifier for current METAR.

ex. KFNL

KFNL 192056Z AUTO 20007KT 10SM CLR 36/01 A3005 RMK AO2 SLP102 T03560006 56013

19 Aug 2019 21:05

Frequency: 135.075

Phone: 970-669-9187

Other Area AWOS: KGXY - KLMO - KEIK - KBDU

TAF KBJC 191720Z 1918/2018 05007KT P6SM FEW120 SCT220 FM200000 34007KT P6SM SCT120 BKN220 FM200600 30005KT P6SM FEW120 SCT220